Time;durP1;ratioP1;P1;durP2;ratioP2;P2;SDS_P1;SDS_P2;PMS_P1;PMS_P2;Temp;Humidity;BMP_temperature;BMP_pressure;BME280_temperature;BME280_humidity;BME280_pressure;Samples;Min_cycle;Max_cycle;Signal;HPM_P1;HPM_P2
2022/12/07 00:01:41;;;;;;;;;;;;;;;3.84;78.59;100980.59;5051230;28;20328;-52
2022/12/07 00:04:08;;;;;;;;;;;;;;;3.95;78.09;100975.97;5046488;28;19916;-52
2022/12/07 00:06:34;;;;;;;;;;;;;;;3.88;78.09;100969.19;5046038;28;19921;-53
2022/12/07 00:09:00;;;;;;;;;;;;;;;3.83;78.44;100967.59;5048207;28;19962;-52
2022/12/07 00:11:25;;;;;;;;;;;;;;;3.86;78.31;100968.38;5050643;28;19916;-52
2022/12/07 00:13:55;;;;;;;;;;;;;;;3.86;78.30;100962.31;5051906;28;20327;-53
2022/12/07 00:16:21;;;;;;;;;;;;;;;3.83;78.07;100965.88;5048970;28;20011;-52
2022/12/07 00:18:47;;;;;;;;;;;;;;;3.85;78.36;100958.88;5048993;28;20315;-52
2022/12/07 00:21:16;;;;;;;;;;;;;;;3.95;77.76;100975.09;5047540;28;19944;-52
2022/12/07 00:23:42;;;;;;;;;;;;;;;3.95;77.59;100960.34;5054573;28;20016;-53
2022/12/07 00:26:10;;;;;;;;;;;;;;;3.96;77.69;100959.44;5045768;28;19917;-53
2022/12/07 00:28:35;;;;;;;;;;;;;;;3.94;77.34;100952.53;5048372;28;19921;-52
2022/12/07 00:31:05;;;;;;;;;;;;;;;3.90;77.75;100964.78;5054291;28;20288;-52
2022/12/07 00:33:31;;;;;;;;;;;;;;;3.76;77.97;100953.88;5049794;28;19924;-53
2022/12/07 00:35:57;;;;;;;;;;;;;;;3.82;77.89;100953.75;5058417;28;19912;-52
2022/12/07 00:38:23;;;;;;;;;;;;;;;3.79;77.77;100953.81;5051103;28;19921;-52
2022/12/07 00:40:58;;;;;;;;;;;;;;;3.85;77.59;100942.38;5046961;28;20042;-54
2022/12/07 00:43:23;;;;;;;;;;;;;;;3.89;77.17;100952.66;5049610;28;19917;-52
2022/12/07 00:45:49;;;;;;;;;;;;;;;3.84;77.36;100951.97;5047253;28;19943;-52
2022/12/07 00:48:14;;;;;;;;;;;;;;;3.91;76.74;100943.06;5048147;28;19928;-52
2022/12/07 00:50:39;;;;;;;;;;;;;;;3.81;76.51;100937.25;5049748;28;19991;-53
2022/12/07 00:53:04;;;;;;;;;;;;;;;3.88;76.76;100945.75;5047040;28;20376;-52
2022/12/07 00:55:32;;;;;;;;;;;;;;;3.93;76.28;100933.47;5046557;28;19921;-52
2022/12/07 00:57:58;;;;;;;;;;;;;;;3.95;76.20;100931.69;5044529;28;20539;-52
2022/12/07 01:00:23;;;;;;;;;;;;;;;4.02;75.97;100934.09;5050207;28;19939;-52
2022/12/07 01:02:48;;;;;;;;;;;;;;;4.00;75.72;100930.72;5047935;28;20122;-52
2022/12/07 01:05:14;;;;;;;;;;;;;;;4.02;75.86;100928.91;5052855;28;20280;-52
2022/12/07 01:07:39;;;;;;;;;;;;;;;4.00;75.87;100925.50;5037026;28;19968;-53
2022/12/07 01:10:05;;;;;;;;;;;;;;;4.01;76.11;100925.47;5045226;28;20076;-52
2022/12/07 01:12:30;;;;;;;;;;;;;;;4.08;76.12;100928.75;5044569;28;19921;-52
2022/12/07 01:14:55;;;;;;;;;;;;;;;3.94;75.72;100932.59;5044922;28;19924;-52
2022/12/07 01:17:21;;;;;;;;;;;;;;;3.89;76.13;100925.78;5049862;28;19998;-52
2022/12/07 01:19:46;;;;;;;;;;;;;;;3.91;76.01;100927.44;5047968;28;19986;-52
2022/12/07 01:22:11;;;;;;;;;;;;;;;3.84;75.95;100928.53;5046147;28;19932;-52
2022/12/07 01:24:37;;;;;;;;;;;;;;;3.85;76.29;100926.75;5053407;28;19936;-52
2022/12/07 01:27:02;;;;;;;;;;;;;;;3.91;76.32;100930.06;5046179;28;20019;-52
2022/12/07 01:29:27;;;;;;;;;;;;;;;3.95;76.09;100931.69;5046412;28;19928;-52
2022/12/07 01:31:52;;;;;;;;;;;;;;;3.99;76.24;100926.41;5052229;28;20392;-53
2022/12/07 01:34:18;;;;;;;;;;;;;;;4.04;75.72;100921.91;5050041;28;19917;-52
2022/12/07 01:36:43;;;;;;;;;;;;;;;4.07;75.68;100914.88;5050755;28;19920;-53
2022/12/07 01:39:09;;;;;;;;;;;;;;;4.03;75.89;100909.78;5049853;28;19921;-52
2022/12/07 01:41:36;;;;;;;;;;;;;;;3.86;76.24;100910.25;5048970;28;20441;-52
2022/12/07 01:44:16;;;;;;;;;;;;;;;3.78;76.50;100900.03;5039707;28;19917;-53
2022/12/07 01:46:43;;;;;;;;;;;;;;;3.85;76.65;100901.59;5047158;28;19923;-52
2022/12/07 01:49:12;;;;;;;;;;;;;;;3.86;76.57;100898.06;5043920;28;20003;-52
2022/12/07 01:51:40;;;;;;;;;;;;;;;3.96;76.30;100902.16;5045103;28;19913;-54
2022/12/07 01:54:05;;;;;;;;;;;;;;;3.92;76.24;100903.13;5045730;28;20268;-53
2022/12/07 01:56:32;;;;;;;;;;;;;;;3.78;76.44;100897.44;5042082;28;19931;-52
2022/12/07 01:58:58;;;;;;;;;;;;;;;3.65;77.15;100895.19;5052803;28;19925;-52
2022/12/07 02:01:23;;;;;;;;;;;;;;;3.73;77.09;100899.31;5048062;28;19960;-52
2022/12/07 02:03:49;;;;;;;;;;;;;;;3.84;77.20;100888.59;5046502;28;19967;-52
2022/12/07 02:06:17;;;;;;;;;;;;;;;3.77;77.06;100894.00;5047050;28;19928;-52
2022/12/07 02:08:43;;;;;;;;;;;;;;;3.89;76.72;100886.75;5047861;28;19925;-52
2022/12/07 02:11:09;;;;;;;;;;;;;;;3.95;76.69;100882.22;5050983;28;19917;-53
2022/12/07 02:13:35;;;;;;;;;;;;;;;3.99;76.26;100872.56;5051016;28;20380;-52
2022/12/07 02:16:07;;;;;;;;;;;;;;;4.02;76.31;100882.03;5048513;28;20019;-54
2022/12/07 02:18:42;;;;;;;;;;;;;;;3.91;76.44;100880.59;5044359;28;19925;-52
2022/12/07 02:21:11;;;;;;;;;;;;;;;3.95;76.03;100874.41;5049992;28;20493;-52
2022/12/07 02:24:11;;;;;;;;;;;;;;;3.92;75.35;100876.25;5050435;28;19919;-52
2022/12/07 02:26:43;;;;;;;;;;;;;;;3.71;75.28;100877.66;4985249;28;19918;-53
2022/12/07 02:29:19;;;;;;;;;;;;;;;3.51;74.70;100882.50;5035180;28;19921;-52
2022/12/07 02:31:49;;;;;;;;;;;;;;;3.54;74.26;100871.19;5044720;28;19916;-52
2022/12/07 02:34:20;;;;;;;;;;;;;;;3.57;73.91;100873.69;5051321;28;20015;-52
2022/12/07 02:36:55;;;;;;;;;;;;;;;3.47;73.88;100875.72;5047069;28;20031;-52
2022/12/07 02:39:26;;;;;;;;;;;;;;;3.32;73.90;100870.91;5050841;28;19917;-52
2022/12/07 02:41:55;;;;;;;;;;;;;;;3.35;73.73;100860.38;5045431;28;19917;-53
2022/12/07 02:44:23;;;;;;;;;;;;;;;3.43;73.71;100866.25;5049250;28;19923;-52
2022/12/07 02:46:59;;;;;;;;;;;;;;;3.42;73.99;100861.06;5045930;28;20344;-52
2022/12/07 02:49:25;;;;;;;;;;;;;;;3.38;74.18;100851.66;5036291;28;19913;-52
2022/12/07 02:51:52;;;;;;;;;;;;;;;3.45;74.25;100848.88;5053625;28;19917;-52
2022/12/07 02:54:18;;;;;;;;;;;;;;;3.50;74.14;100840.94;5048701;28;19920;-52
2022/12/07 02:56:43;;;;;;;;;;;;;;;3.57;73.99;100844.22;5045934;28;20824;-52
2022/12/07 02:59:09;;;;;;;;;;;;;;;3.59;73.58;100834.63;5048691;28;19947;-52
2022/12/07 03:01:48;;;;;;;;;;;;;;;3.61;73.71;100841.50;5046905;28;19916;-52
2022/12/07 03:04:13;;;;;;;;;;;;;;;3.58;73.50;100835.53;5046484;28;19921;-52
2022/12/07 03:06:42;;;;;;;;;;;;;;;3.55;73.19;100831.28;5049607;28;20378;-52
2022/12/07 03:09:08;;;;;;;;;;;;;;;3.53;73.54;100827.84;5050184;28;19999;-53
2022/12/07 03:11:41;;;;;;;;;;;;;;;3.50;73.43;100818.38;5050079;28;20000;-52
2022/12/07 03:14:29;;;;;;;;;;;;;;;3.53;73.45;100807.03;5043308;28;19917;-52
2022/12/07 03:17:01;;;;;;;;;;;;;;;3.56;73.46;100806.94;5046917;28;19986;-52
2022/12/07 03:19:27;;;;;;;;;;;;;;;3.52;73.30;100800.13;5043786;28;19921;-52
2022/12/07 03:22:02;;;;;;;;;;;;;;;3.54;73.49;100785.31;5049142;28;19921;-52
2022/12/07 03:24:30;;;;;;;;;;;;;;;3.53;73.50;100786.22;5050019;28;19917;-53
2022/12/07 03:27:16;;;;;;;;;;;;;;;3.53;74.03;100790.56;5048149;28;19913;-53
2022/12/07 03:29:48;;;;;;;;;;;;;;;3.56;73.76;100796.53;5045467;28;19923;-53
2022/12/07 03:32:14;;;;;;;;;;;;;;;3.60;74.01;100795.53;5048606;28;19928;-52
2022/12/07 03:34:48;;;;;;;;;;;;;;;3.60;73.82;100782.53;5048548;28;19917;-52
2022/12/07 03:37:28;;;;;;;;;;;;;;;3.63;74.17;100784.22;5047365;28;19968;-52
2022/12/07 03:40:00;;;;;;;;;;;;;;;3.62;74.10;100778.16;5044941;28;19921;-52
2022/12/07 03:42:25;;;;;;;;;;;;;;;3.66;74.03;100781.50;5050312;28;19913;-52
2022/12/07 03:44:50;;;;;;;;;;;;;;;3.73;73.90;100772.66;5049697;28;19912;-52
2022/12/07 03:47:16;;;;;;;;;;;;;;;3.74;73.77;100773.47;5044760;28;19921;-53
2022/12/07 03:49:45;;;;;;;;;;;;;;;3.73;73.75;100766.56;5051324;28;19913;-52
2022/12/07 03:52:10;;;;;;;;;;;;;;;3.77;73.76;100760.38;5044256;28;19978;-52
2022/12/07 03:54:56;;;;;;;;;;;;;;;3.80;73.82;100763.75;5040647;28;19912;-53
2022/12/07 03:57:22;;;;;;;;;;;;;;;3.80;73.50;100747.28;5046203;28;20380;-53
2022/12/07 03:59:48;;;;;;;;;;;;;;;3.79;73.76;100753.38;5047599;28;19943;-54
2022/12/07 04:02:13;;;;;;;;;;;;;;;3.79;73.63;100745.59;5048671;28;20299;-53
2022/12/07 04:04:39;;;;;;;;;;;;;;;3.77;73.69;100742.16;5045531;28;20458;-52
2022/12/07 04:07:05;;;;;;;;;;;;;;;3.78;73.52;100739.50;5043058;28;20605;-54
2022/12/07 04:09:30;;;;;;;;;;;;;;;3.81;73.45;100735.97;5048088;28;20518;-52
2022/12/07 04:11:55;;;;;;;;;;;;;;;3.84;73.58;100735.91;5050012;28;19956;-52
2022/12/07 04:14:21;;;;;;;;;;;;;;;3.90;73.22;100732.25;5048288;28;19955;-52
2022/12/07 04:16:47;;;;;;;;;;;;;;;3.88;73.08;100729.69;5048589;28;20012;-52
2022/12/07 04:19:12;;;;;;;;;;;;;;;3.89;72.91;100733.97;5049376;28;19928;-53
2022/12/07 04:21:38;;;;;;;;;;;;;;;3.92;73.08;100731.28;5047695;28;19929;-52
2022/12/07 04:24:04;;;;;;;;;;;;;;;3.91;72.63;100726.16;5048558;28;20013;-53
2022/12/07 04:26:29;;;;;;;;;;;;;;;3.88;73.10;100729.69;5043543;28;19950;-52
2022/12/07 04:28:54;;;;;;;;;;;;;;;3.81;72.90;100718.59;5047326;28;19921;-52
2022/12/07 04:31:20;;;;;;;;;;;;;;;3.80;73.19;100718.66;5048905;28;19921;-53
2022/12/07 04:33:45;;;;;;;;;;;;;;;3.78;73.23;100708.28;5047481;28;19948;-52
2022/12/07 04:36:10;;;;;;;;;;;;;;;3.75;73.46;100704.91;5047289;28;19963;-52
2022/12/07 04:38:36;;;;;;;;;;;;;;;3.79;73.15;100703.94;5040011;28;19939;-53
2022/12/07 04:41:05;;;;;;;;;;;;;;;3.77;73.31;100703.13;5046454;28;19921;-52
2022/12/07 04:43:31;;;;;;;;;;;;;;;3.74;73.29;100698.00;5044759;28;19913;-53
2022/12/07 04:45:56;;;;;;;;;;;;;;;3.75;73.40;100699.72;5049277;28;19913;-52
2022/12/07 04:48:21;;;;;;;;;;;;;;;3.72;73.61;100692.84;5049957;28;19924;-52
2022/12/07 04:50:48;;;;;;;;;;;;;;;3.73;73.42;100694.56;5048433;28;19920;-52
2022/12/07 04:53:13;;;;;;;;;;;;;;;3.73;73.65;100693.69;5050462;28;19917;-53
2022/12/07 04:55:38;;;;;;;;;;;;;;;3.70;73.67;100686.00;5041045;28;20402;-53
2022/12/07 04:58:04;;;;;;;;;;;;;;;3.67;73.97;100684.31;5046123;28;19917;-52
2022/12/07 05:00:29;;;;;;;;;;;;;;;3.70;73.89;100678.19;5042354;28;19929;-52
2022/12/07 05:02:54;;;;;;;;;;;;;;;3.70;73.50;100678.19;5044292;28;19921;-52
2022/12/07 05:05:20;;;;;;;;;;;;;;;3.73;73.65;100675.47;5045048;28;19932;-52
2022/12/07 05:07:45;;;;;;;;;;;;;;;3.74;73.51;100672.84;5053211;28;20387;-52
2022/12/07 05:10:11;;;;;;;;;;;;;;;3.74;73.43;100674.59;5043300;28;20388;-52
2022/12/07 05:12:36;;;;;;;;;;;;;;;3.73;73.46;100667.66;5050225;28;19963;-52
2022/12/07 05:15:01;;;;;;;;;;;;;;;3.71;73.48;100665.13;5034783;28;19921;-52
2022/12/07 05:17:27;;;;;;;;;;;;;;;3.69;73.59;100663.47;5043081;28;20312;-52
2022/12/07 05:19:52;;;;;;;;;;;;;;;3.69;73.54;100660.88;5038108;28;19935;-51
2022/12/07 05:22:17;;;;;;;;;;;;;;;3.66;73.71;100657.47;5028432;28;20312;-53
2022/12/07 05:24:43;;;;;;;;;;;;;;;3.63;73.39;100651.50;5039541;28;19932;-52
2022/12/07 05:27:08;;;;;;;;;;;;;;;3.63;73.60;100649.75;5046303;28;20004;-52
2022/12/07 05:29:33;;;;;;;;;;;;;;;3.63;73.27;100654.09;5047113;28;19925;-54
2022/12/07 05:31:59;;;;;;;;;;;;;;;3.60;73.58;100651.59;5046628;28;20019;-52
2022/12/07 05:34:24;;;;;;;;;;;;;;;3.57;73.56;100652.50;5049337;28;20300;-52
2022/12/07 05:36:50;;;;;;;;;;;;;;;3.54;73.67;100647.44;5048827;28;19925;-53
2022/12/07 05:39:15;;;;;;;;;;;;;;;3.54;73.61;100647.44;5047495;28;20372;-52
2022/12/07 05:44:24;;;;;;;;;;;;;;;3.49;73.54;100634.53;5044956;28;20058;-52
2022/12/07 05:46:49;;;;;;;;;;;;;;;3.48;73.56;100634.59;5047016;28;19925;-51
2022/12/07 05:49:15;;;;;;;;;;;;;;;3.47;73.23;100635.50;5045919;28;19921;-53
2022/12/07 05:51:40;;;;;;;;;;;;;;;3.48;73.39;100637.19;5049025;28;19925;-52
2022/12/07 05:54:05;;;;;;;;;;;;;;;3.41;73.63;100638.25;5045387;28;19916;-52
2022/12/07 05:56:31;;;;;;;;;;;;;;;3.39;73.95;100635.72;5042612;28;19921;-53
2022/12/07 06:01:40;;;;;;;;;;;;;;;3.35;73.82;100624.56;5046634;28;19935;-53
2022/12/07 06:04:05;;;;;;;;;;;;;;;3.35;73.88;100627.16;5048775;28;19921;-54
2022/12/07 06:06:30;;;;;;;;;;;;;;;3.35;74.29;100616.75;5047591;28;19927;-53
2022/12/07 06:08:56;;;;;;;;;;;;;;;3.33;74.03;100620.28;5043782;28;19947;-53
2022/12/07 06:14:04;;;;;;;;;;;;;;;3.31;74.27;100612.53;5046951;28;19974;-53
2022/12/07 06:16:30;;;;;;;;;;;;;;;3.32;74.46;100611.63;5048255;28;19921;-53
2022/12/07 06:18:55;;;;;;;;;;;;;;;3.35;74.30;100605.47;5049507;28;19932;-53
2022/12/07 06:21:20;;;;;;;;;;;;;;;3.37;74.30;100602.84;5044625;28;20395;-53
2022/12/07 06:23:47;;;;;;;;;;;;;;;3.40;74.37;100600.16;5048622;28;19921;-52
2022/12/07 06:26:12;;;;;;;;;;;;;;;3.40;74.62;100600.16;5048635;28;19923;-53
2022/12/07 06:28:38;;;;;;;;;;;;;;;3.42;74.21;100590.53;5049701;28;19921;-52
2022/12/07 06:31:03;;;;;;;;;;;;;;;3.45;74.15;100596.53;5047610;28;19921;-52
2022/12/07 06:33:28;;;;;;;;;;;;;;;3.47;74.24;100583.47;5046573;28;20440;-53
2022/12/07 06:35:54;;;;;;;;;;;;;;;3.44;74.70;100588.75;5051959;28;19920;-52
2022/12/07 06:38:21;;;;;;;;;;;;;;;3.45;74.44;100590.47;5048461;28;21443;-53
2022/12/07 06:40:47;;;;;;;;;;;;;;;3.47;74.40;100583.47;5052204;28;19913;-53
2022/12/07 06:43:13;;;;;;;;;;;;;;;3.43;74.49;100589.66;5050518;28;19925;-52
2022/12/07 06:45:38;;;;;;;;;;;;;;;3.42;74.86;100577.53;5031127;28;19916;-53
2022/12/07 06:48:03;;;;;;;;;;;;;;;3.41;75.05;100581.03;5052174;28;20015;-52
2022/12/07 06:50:29;;;;;;;;;;;;;;;3.40;74.95;100592.38;5052143;28;19928;-53
2022/12/07 06:52:54;;;;;;;;;;;;;;;3.41;75.03;100575.81;5052309;28;19999;-52
2022/12/07 06:55:19;;;;;;;;;;;;;;;3.39;75.46;100577.66;5049479;28;20012;-53
2022/12/07 06:57:45;;;;;;;;;;;;;;;3.41;75.42;100578.44;5049930;28;19978;-54
2022/12/07 07:00:10;;;;;;;;;;;;;;;3.41;75.76;100579.31;5047901;28;19924;-52
2022/12/07 07:02:36;;;;;;;;;;;;;;;3.42;75.53;100573.19;5049257;28;19921;-53
2022/12/07 07:05:01;;;;;;;;;;;;;;;3.41;75.97;100568.91;5053839;28;19989;-53
2022/12/07 07:07:27;;;;;;;;;;;;;;;3.46;75.88;100571.34;5051233;28;19920;-52
2022/12/07 07:09:52;;;;;;;;;;;;;;;3.45;75.99;100574.84;5045730;28;20326;-53
2022/12/07 07:12:17;;;;;;;;;;;;;;;3.39;76.06;100570.69;5048443;28;19921;-53
2022/12/07 07:14:43;;;;;;;;;;;;;;;3.39;76.24;100569.84;5049554;28;19963;-52
2022/12/07 07:17:08;;;;;;;;;;;;;;;3.33;76.60;100576.94;5049274;28;19944;-53
2022/12/07 07:19:33;;;;;;;;;;;;;;;3.36;76.57;100568.16;5051429;28;19921;-53
2022/12/07 07:21:59;;;;;;;;;;;;;;;3.40;76.74;100567.19;5048412;28;20371;-52
2022/12/07 07:24:24;;;;;;;;;;;;;;;3.39;76.93;100570.69;5049504;28;19912;-53
2022/12/07 07:26:49;;;;;;;;;;;;;;;3.41;77.11;100560.22;5050897;28;19916;-53
2022/12/07 07:29:14;;;;;;;;;;;;;;;3.42;77.06;100572.34;5049955;28;19917;-52
2022/12/07 07:31:40;;;;;;;;;;;;;;;3.40;77.00;100563.75;5050134;28;19999;-52
2022/12/07 07:34:05;;;;;;;;;;;;;;;3.38;77.22;100560.34;5047242;28;20002;-52
2022/12/07 07:36:30;;;;;;;;;;;;;;;3.40;77.66;100562.00;5050059;28;20027;-53
2022/12/07 07:38:56;;;;;;;;;;;;;;;3.40;77.54;100566.34;5046924;28;19924;-54
2022/12/07 07:41:21;;;;;;;;;;;;;;;3.38;77.94;100563.78;5049175;28;19920;-53
2022/12/07 07:43:46;;;;;;;;;;;;;;;3.29;78.18;100559.72;5045988;28;19994;-52
2022/12/07 07:46:12;;;;;;;;;;;;;;;3.38;77.97;100558.56;5047122;28;19928;-53
2022/12/07 07:48:37;;;;;;;;;;;;;;;3.46;77.58;100560.94;5050906;28;19960;-52
2022/12/07 07:51:08;;;;;;;;;;;;;;;3.48;77.64;100559.16;5048205;28;19925;-53
2022/12/07 07:53:34;;;;;;;;;;;;;;;3.49;77.82;100566.06;5051076;28;19916;-53
2022/12/07 07:55:59;;;;;;;;;;;;;;;3.44;78.06;100553.19;5044325;28;19923;-52
2022/12/07 07:58:25;;;;;;;;;;;;;;;3.55;77.84;100559.81;5048274;28;20519;-52
2022/12/07 08:00:50;;;;;;;;;;;;;;;3.62;77.62;100554.34;5047079;28;19921;-53
2022/12/07 08:03:16;;;;;;;;;;;;;;;3.69;77.02;100557.63;5047848;28;19971;-53
2022/12/07 08:05:41;;;;;;;;;;;;;;;3.69;77.03;100551.56;5047212;28;19924;-53
2022/12/07 08:08:06;;;;;;;;;;;;;;;3.70;77.19;100553.28;5049768;28;20000;-52
2022/12/07 08:10:32;;;;;;;;;;;;;;;3.71;76.97;100560.16;5026527;28;19936;-52
2022/12/07 08:13:16;;;;;;;;;;;;;;;3.54;77.26;100571.97;5047042;28;19924;-53
2022/12/07 08:15:45;;;;;;;;;;;;;;;3.36;77.42;100560.38;5043659;28;19920;-53
2022/12/07 08:18:11;;;;;;;;;;;;;;;3.35;77.37;100558.66;5046214;28;20343;-53
2022/12/07 08:20:37;;;;;;;;;;;;;;;3.37;77.43;100566.44;5046910;28;20300;-52
2022/12/07 08:23:03;;;;;;;;;;;;;;;3.47;76.85;100571.31;5046603;28;19978;-52
2022/12/07 08:25:28;;;;;;;;;;;;;;;3.58;76.54;100565.75;5047618;28;19920;-53
2022/12/07 08:27:54;;;;;;;;;;;;;;;3.39;76.88;100559.44;5031540;28;19912;-53
2022/12/07 08:30:19;;;;;;;;;;;;;;;3.49;76.73;100566.06;5045405;28;19920;-53
2022/12/07 08:32:45;;;;;;;;;;;;;;;3.56;76.77;100559.75;5049784;28;20272;-53
2022/12/07 08:35:11;;;;;;;;;;;;;;;3.62;76.39;100562.16;5044922;28;19948;-52
2022/12/07 08:37:37;;;;;;;;;;;;;;;3.64;76.76;100562.09;5048532;28;19920;-53
2022/12/07 08:40:03;;;;;;;;;;;;;;;3.54;77.02;100571.97;5047293;28;19917;-53
2022/12/07 08:42:29;;;;;;;;;;;;;;;3.43;77.23;100558.44;5047788;28;20004;-53
2022/12/07 08:44:57;;;;;;;;;;;;;;;3.32;77.42;100563.97;5051783;28;19920;-53
2022/12/07 08:47:23;;;;;;;;;;;;;;;3.24;77.61;100553.81;5051260;28;19920;-53
2022/12/07 08:49:49;;;;;;;;;;;;;;;3.19;77.60;100559.13;5047504;28;19913;-53
2022/12/07 08:52:15;;;;;;;;;;;;;;;3.07;77.79;100559.50;5052792;28;20403;-53
2022/12/07 08:54:41;;;;;;;;;;;;;;;3.06;78.27;100565.59;5054996;28;20368;-53
2022/12/07 08:57:07;;;;;;;;;;;;;;;3.12;78.39;100567.16;5053460;28;19917;-52
2022/12/07 08:59:34;;;;;;;;;;;;;;;3.07;78.48;100569.06;5051083;28;20288;-53
2022/12/07 09:02:00;;;;;;;;;;;;;;;2.97;78.70;100571.06;5053077;28;19928;-52
2022/12/07 09:04:25;;;;;;;;;;;;;;;2.98;78.66;100565.81;5054416;28;19913;-53
2022/12/07 09:06:50;;;;;;;;;;;;;;;3.03;78.84;100569.16;5052797;28;19917;-52
2022/12/07 09:09:15;;;;;;;;;;;;;;;3.08;78.85;100582.00;5046893;28;19921;-53
2022/12/07 09:11:41;;;;;;;;;;;;;;;3.16;78.58;100568.78;5050950;28;19974;-53
2022/12/07 09:14:06;;;;;;;;;;;;;;;3.14;78.57;100578.38;5051897;28;20334;-53
2022/12/07 09:16:31;;;;;;;;;;;;;;;3.10;78.76;100572.41;5049898;28;19957;-52
2022/12/07 09:18:57;;;;;;;;;;;;;;;3.10;78.81;100571.56;5037502;28;20015;-53
2022/12/07 09:21:22;;;;;;;;;;;;;;;2.99;79.40;100571.88;5054196;28;19966;-53
2022/12/07 09:23:47;;;;;;;;;;;;;;;3.08;79.17;100573.38;5050180;28;19921;-52
2022/12/07 09:26:13;;;;;;;;;;;;;;;2.89;79.63;100566.09;5054726;28;19982;-53
2022/12/07 09:28:38;;;;;;;;;;;;;;;2.97;79.75;100577.09;5054808;28;19924;-52
2022/12/07 09:31:05;;;;;;;;;;;;;;;2.81;79.49;100570.63;5053516;28;19925;-52
2022/12/07 09:33:31;;;;;;;;;;;;;;;2.79;79.53;100586.28;5054840;28;19920;-53
2022/12/07 09:35:56;;;;;;;;;;;;;;;2.85;79.31;100578.34;5052691;28;20299;-53
2022/12/07 09:38:22;;;;;;;;;;;;;;;2.73;79.51;100589.91;5054508;28;19960;-52
2022/12/07 09:40:47;;;;;;;;;;;;;;;2.63;79.71;100583.28;5039630;28;20002;-52
2022/12/07 09:43:18;;;;;;;;;;;;;;;2.66;79.75;100583.16;5053251;28;20000;-53
2022/12/07 09:45:44;;;;;;;;;;;;;;;2.61;80.19;100590.25;5031808;28;20364;-52
2022/12/07 09:48:18;;;;;;;;;;;;;;;2.62;79.92;100584.16;5033150;28;19952;-53
2022/12/07 09:50:43;;;;;;;;;;;;;;;2.71;79.58;100586.50;5053321;28;19924;-52
2022/12/07 09:53:11;;;;;;;;;;;;;;;2.77;79.42;100593.28;5052646;28;19928;-52
2022/12/07 09:55:38;;;;;;;;;;;;;;;2.93;78.93;100582.44;5052027;28;21151;-53
2022/12/07 09:58:03;;;;;;;;;;;;;;;2.85;79.56;100586.13;5051999;28;20402;-53
2022/12/07 10:00:29;;;;;;;;;;;;;;;2.85;80.14;100590.47;5051215;28;19921;-53
2022/12/07 10:02:56;;;;;;;;;;;;;;;2.86;80.47;100589.56;5053692;28;19971;-52
2022/12/07 10:05:24;;;;;;;;;;;;;;;2.84;80.19;100587.03;5034757;28;20442;-52
2022/12/07 10:07:49;;;;;;;;;;;;;;;2.88;80.18;100586.00;5052532;28;20392;-53
2022/12/07 10:10:17;;;;;;;;;;;;;;;2.89;79.88;100590.31;5050159;28;19974;-52
2022/12/07 10:13:03;;;;;;;;;;;;;;;2.89;79.91;100586.88;5058648;28;19913;-53
2022/12/07 10:15:45;;;;;;;;;;;;;;;2.79;80.11;100575.91;5048615;28;19917;-53
2022/12/07 10:18:29;;;;;;;;;;;;;;;2.90;79.99;100578.19;5052503;28;19917;-53
2022/12/07 10:21:03;;;;;;;;;;;;;;;3.05;79.42;100577.75;5052455;28;20275;-52
2022/12/07 10:23:28;;;;;;;;;;;;;;;3.05;79.37;100592.47;5052838;28;19917;-52
2022/12/07 10:25:54;;;;;;;;;;;;;;;3.04;79.30;100585.56;5053448;28;20330;-53
2022/12/07 10:28:20;;;;;;;;;;;;;;;3.01;79.17;100581.34;5052749;28;19964;-52
2022/12/07 10:31:15;;;;;;;;;;;;;;;3.08;79.30;100587.19;5033803;28;19948;-52
2022/12/07 10:33:51;;;;;;;;;;;;;;;3.02;79.65;100595.19;5015077;28;19975;-53
2022/12/07 10:36:19;;;;;;;;;;;;;;;2.98;79.46;100586.59;5049968;28;19917;-53
2022/12/07 10:38:48;;;;;;;;;;;;;;;3.08;79.18;100601.97;5053637;28;20015;-52
2022/12/07 10:41:13;;;;;;;;;;;;;;;2.99;79.53;100598.72;5051791;28;19923;-52
2022/12/07 10:43:46;;;;;;;;;;;;;;;3.03;79.41;100594.28;5034957;28;19916;-53
2022/12/07 10:46:17;;;;;;;;;;;;;;;3.16;79.00;100605.19;5048697;28;19916;-52
2022/12/07 10:48:51;;;;;;;;;;;;;;;3.17;78.97;100591.28;5050947;28;19913;-53
2022/12/07 10:51:35;;;;;;;;;;;;;;;3.10;78.88;100605.38;5051995;28;19948;-51
2022/12/07 10:54:23;;;;;;;;;;;;;;;3.00;78.93;100595.22;5049206;28;19913;-51
2022/12/07 10:56:58;;;;;;;;;;;;;;;3.09;79.14;100590.66;5052211;28;19921;-53
2022/12/07 10:59:42;;;;;;;;;;;;;;;3.18;78.97;100606.00;5054577;28;19921;-52
2022/12/07 11:02:08;;;;;;;;;;;;;;;3.19;78.85;100589.50;5049732;28;19935;-52
2022/12/07 11:04:38;;;;;;;;;;;;;;;3.25;78.13;100591.94;5047720;28;20385;-52
2022/12/07 11:07:32;;;;;;;;;;;;;;;3.10;78.32;100581.97;5051151;28;19951;-53
2022/12/07 11:10:17;;;;;;;;;;;;;;;3.18;79.03;100583.44;5003453;28;19922;-52
2022/12/07 11:13:01;;;;;;;;;;;;;;;3.21;78.82;100582.50;5040184;28;19963;-52
2022/12/07 11:15:40;;;;;;;;;;;;;;;3.29;78.51;100575.31;5039199;28;20372;-51
2022/12/07 11:18:20;;;;;;;;;;;;;;;3.39;78.07;100580.25;5048743;28;20565;-54
2022/12/07 11:20:46;;;;;;;;;;;;;;;3.30;78.12;100577.03;5052538;28;20307;-54
2022/12/07 11:23:18;;;;;;;;;;;;;;;3.40;77.65;100581.97;5048389;28;19917;-53
2022/12/07 11:25:49;;;;;;;;;;;;;;;3.39;77.85;100590.66;5046055;28;19927;-52
2022/12/07 11:28:26;;;;;;;;;;;;;;;3.42;77.74;100600.94;5051211;28;20000;-52
2022/12/07 11:30:57;;;;;;;;;;;;;;;3.47;77.24;100605.13;5049518;28;19925;-51
2022/12/07 11:33:22;;;;;;;;;;;;;;;3.37;76.45;100585.47;5047928;28;20027;-51
2022/12/07 11:36:07;;;;;;;;;;;;;;;3.35;75.96;100585.53;5048923;28;20011;-53
2022/12/07 11:38:35;;;;;;;;;;;;;;;3.40;75.47;100594.97;5051032;28;19916;-52
2022/12/07 11:41:12;;;;;;;;;;;;;;;3.40;75.54;100592.38;5046905;28;20304;-51
2022/12/07 11:43:42;;;;;;;;;;;;;;;3.49;75.13;100595.50;5046763;28;19913;-52
2022/12/07 11:46:11;;;;;;;;;;;;;;;3.41;74.77;100591.44;5052412;28;19996;-51
2022/12/07 11:48:51;;;;;;;;;;;;;;;3.28;75.02;100591.81;5050084;28;19935;-53
2022/12/07 11:51:18;;;;;;;;;;;;;;;3.25;74.75;100578.06;5043355;28;20000;-52
2022/12/07 11:53:52;;;;;;;;;;;;;;;3.29;75.12;100583.13;5046636;28;19932;-56
2022/12/07 11:56:20;;;;;;;;;;;;;;;3.22;74.96;100579.00;5044679;28;19924;-52
2022/12/07 11:58:57;;;;;;;;;;;;;;;3.16;74.99;100577.44;5044046;28;20312;-52
2022/12/07 12:01:41;;;;;;;;;;;;;;;3.24;74.66;100585.03;5044997;28;19921;-55
2022/12/07 12:04:09;;;;;;;;;;;;;;;3.30;74.47;100587.41;5048701;28;19913;-51
2022/12/07 12:06:35;;;;;;;;;;;;;;;3.32;74.49;100579.59;5047659;28;20601;-52
2022/12/07 12:09:00;;;;;;;;;;;;;;;3.53;74.78;100587.63;5044437;28;19967;-51
2022/12/07 12:11:31;;;;;;;;;;;;;;;3.59;74.07;100585.69;5045432;28;20376;-52
2022/12/07 12:14:17;;;;;;;;;;;;;;;3.71;73.99;100571.44;5048071;28;20422;-52
2022/12/07 12:17:01;;;;;;;;;;;;;;;3.76;73.33;100577.34;5043332;28;19924;-52
2022/12/07 12:19:45;;;;;;;;;;;;;;;3.83;73.57;100575.41;5047614;28;19920;-52
2022/12/07 12:22:20;;;;;;;;;;;;;;;3.76;73.14;100571.28;5044067;28;20042;-53
2022/12/07 12:24:53;;;;;;;;;;;;;;;3.75;72.82;100570.44;5039279;28;19931;-52
2022/12/07 12:27:25;;;;;;;;;;;;;;;3.65;72.79;100571.63;5045181;28;19913;-52
2022/12/07 12:29:55;;;;;;;;;;;;;;;3.64;73.09;100560.38;5049251;28;19920;-51
2022/12/07 12:32:21;;;;;;;;;;;;;;;3.49;73.15;100560.84;5044527;28;19928;-52
2022/12/07 12:34:46;;;;;;;;;;;;;;;3.47;73.83;100563.50;5044212;28;20343;-51
2022/12/07 12:37:31;;;;;;;;;;;;;;;3.40;72.58;100555.94;5026923;28;19927;-54
2022/12/07 12:40:14;;;;;;;;;;;;;;;3.41;71.95;100549.81;5044425;28;19920;-51
2022/12/07 12:42:47;;;;;;;;;;;;;;;3.33;71.84;100556.13;5049965;28;19913;-52
2022/12/07 12:45:20;;;;;;;;;;;;;;;3.35;71.41;100549.13;5040347;28;19924;-52
2022/12/07 12:48:02;;;;;;;;;;;;;;;3.30;70.95;100577.03;5040824;28;19913;-52
2022/12/07 12:50:37;;;;;;;;;;;;;;;3.28;71.09;100554.56;5048568;28;20331;-52
2022/12/07 12:53:26;;;;;;;;;;;;;;;3.25;71.26;100541.66;5048738;28;19928;-54
2022/12/07 12:55:51;;;;;;;;;;;;;;;3.14;70.87;100549.75;5040896;28;20411;-52
2022/12/07 12:58:19;;;;;;;;;;;;;;;3.02;70.99;100544.03;5046494;28;19921;-54
2022/12/07 13:01:05;;;;;;;;;;;;;;;3.02;71.13;100536.25;5032520;28;19921;-53
2022/12/07 13:03:31;;;;;;;;;;;;;;;2.96;71.70;100538.19;5047635;28;19924;-52